createdAt,value
2024-05-09T00:01:37.403Z,9.70
2024-05-09T00:04:22.979Z,9.95
2024-05-09T00:07:08.480Z,10.50
2024-05-09T00:09:53.988Z,10.15
2024-05-09T00:12:39.261Z,10.02
2024-05-09T00:15:24.737Z,9.00
2024-05-09T00:18:13.013Z,10.23
2024-05-09T00:20:58.598Z,9.52
2024-05-09T00:23:44.189Z,8.18
2024-05-09T00:26:29.807Z,9.00
2024-05-09T00:29:15.367Z,8.68
2024-05-09T00:32:01.050Z,8.57
2024-05-09T00:34:49.574Z,9.55
2024-05-09T00:37:34.769Z,9.95
2024-05-09T00:40:30.750Z,9.30
2024-05-09T00:43:23.461Z,8.35
2024-05-09T00:46:09.182Z,8.38
2024-05-09T00:48:54.704Z,8.18
2024-05-09T00:51:44.965Z,8.38
2024-05-09T00:54:30.852Z,7.83
2024-05-09T00:57:16.396Z,7.63
2024-05-09T01:00:04.756Z,8.02
2024-05-09T01:02:51.611Z,7.90
2024-05-09T01:05:37.209Z,8.07
2024-05-09T01:08:25.424Z,7.38
2024-05-09T01:11:10.783Z,6.88
2024-05-09T01:13:56.418Z,7.07
2024-05-09T01:16:42.494Z,6.45
2024-05-09T01:19:30.237Z,5.72
2024-05-09T01:22:15.643Z,6.18
2024-05-09T01:25:03.716Z,6.93
2024-05-09T01:27:49.254Z,6.82
2024-05-09T01:30:36.814Z,7.35
2024-05-09T01:33:23.439Z,8.20
2024-05-09T01:36:09.144Z,7.82
2024-05-09T01:38:54.648Z,8.63
2024-05-09T01:41:42.579Z,7.95
2024-05-09T01:44:28.157Z,8.52
2024-05-09T01:47:13.820Z,8.93
2024-05-09T01:49:59.181Z,7.70
2024-05-09T01:52:44.663Z,8.43
2024-05-09T01:55:30.071Z,8.20
2024-05-09T01:58:17.989Z,7.97
2024-05-09T02:01:03.457Z,10.18
2024-05-09T02:03:49.545Z,9.00
2024-05-09T02:06:35.295Z,9.40
2024-05-09T02:09:20.526Z,8.68
2024-05-09T02:12:06.311Z,8.38
2024-05-09T02:14:54.814Z,8.10
2024-05-09T02:17:40.520Z,11.32
2024-05-09T02:20:33.559Z,8.85
2024-05-09T02:23:21.715Z,8.90
2024-05-09T02:26:07.359Z,8.57
2024-05-09T02:28:52.813Z,9.02
2024-05-09T02:31:40.884Z,9.73
2024-05-09T02:34:26.148Z,8.25
2024-05-09T02:37:11.618Z,9.32
2024-05-09T02:39:54.270Z,8.85
2024-05-09T02:42:39.720Z,7.43
2024-05-09T02:45:22.233Z,8.93
2024-05-09T02:48:14.305Z,9.07
2024-05-09T02:50:57.116Z,8.98
2024-05-09T02:53:42.669Z,8.45
2024-05-09T02:56:25.758Z,8.25
2024-05-09T02:59:11.066Z,9.25
2024-05-09T03:01:53.703Z,8.38
2024-05-09T03:04:42.530Z,8.25
2024-05-09T03:07:25.125Z,7.82
2024-05-09T03:10:18.334Z,7.70
2024-05-09T03:13:09.998Z,7.05
2024-05-09T03:15:52.787Z,7.38
2024-05-09T03:18:38.211Z,6.57
2024-05-09T03:21:23.847Z,8.30
2024-05-09T03:24:09.627Z,6.00
2024-05-09T03:26:52.171Z,6.50
2024-05-09T03:29:37.495Z,6.53
2024-05-09T03:32:20.390Z,6.18
2024-05-09T03:35:05.713Z,6.47
2024-05-09T03:37:53.700Z,6.50
2024-05-09T03:40:38.932Z,6.13
2024-05-09T03:43:24.383Z,6.25
2024-05-09T03:46:09.827Z,6.82
2024-05-09T03:48:52.662Z,5.57
2024-05-09T03:51:38.088Z,5.25
2024-05-09T03:54:24.927Z,6.22
2024-05-09T03:57:10.478Z,6.13
2024-05-09T03:59:53.128Z,4.93
2024-05-09T04:02:38.404Z,4.85
2024-05-09T04:05:21.198Z,5.32
2024-05-09T04:08:06.894Z,4.93
2024-05-09T04:10:55.180Z,4.88
2024-05-09T04:13:37.745Z,4.35
2024-05-09T04:16:22.939Z,4.30
2024-05-09T04:19:05.624Z,4.18
2024-05-09T04:21:50.824Z,4.47
2024-05-09T04:24:36.240Z,3.55
2024-05-09T04:27:21.460Z,3.95
2024-05-09T04:30:12.223Z,4.32
2024-05-09T04:33:01.249Z,3.90
2024-05-09T04:35:44.376Z,3.78
2024-05-09T04:38:30.411Z,3.55
2024-05-09T04:41:13.058Z,4.45
2024-05-09T04:44:01.125Z,2.70
2024-05-09T04:46:43.659Z,3.50
2024-05-09T04:49:28.945Z,3.03
2024-05-09T04:52:11.718Z,3.20
2024-05-09T04:54:58.891Z,3.10
2024-05-09T04:57:41.776Z,3.40
2024-05-09T05:00:35.918Z,3.40
2024-05-09T05:03:20.971Z,2.78
2024-05-09T05:06:06.570Z,3.63
2024-05-09T05:08:49.078Z,4.95
2024-05-09T05:11:34.329Z,2.47
2024-05-09T05:14:17.001Z,2.80
2024-05-09T05:17:05.041Z,2.95
2024-05-09T05:19:47.895Z,2.95
2024-05-09T05:22:33.201Z,3.10
2024-05-09T05:25:15.705Z,1.88
2024-05-09T05:28:01.074Z,1.90
2024-05-09T05:30:44.113Z,2.50
2024-05-09T05:33:32.079Z,2.70
2024-05-09T05:36:14.769Z,3.08
2024-05-09T05:39:00.155Z,2.90
2024-05-09T05:41:42.681Z,2.60
2024-05-09T05:44:28.010Z,2.20
2024-05-09T05:47:10.984Z,2.78
2024-05-09T05:49:59.175Z,2.33
2024-05-09T05:52:41.661Z,2.03
2024-05-09T05:55:27.305Z,2.78
2024-05-09T05:58:10.128Z,2.00
2024-05-09T06:00:56.256Z,2.25
2024-05-09T06:03:39.504Z,2.65
2024-05-09T06:06:27.501Z,2.65
2024-05-09T06:09:10.201Z,2.20
2024-05-09T06:11:55.513Z,1.90
2024-05-09T06:14:38.485Z,2.53
2024-05-09T06:17:23.840Z,2.28
2024-05-09T06:20:13.229Z,1.88
2024-05-09T06:23:05.340Z,1.77
2024-05-09T06:25:48.035Z,1.42
2024-05-09T06:28:33.458Z,1.35
2024-05-09T06:31:16.620Z,1.77
2024-05-09T06:34:04.550Z,1.70
2024-05-09T06:36:47.112Z,1.33
2024-05-09T06:39:34.994Z,1.92
2024-05-09T06:42:17.500Z,1.55
2024-05-09T06:45:03.013Z,2.15
2024-05-09T06:47:45.914Z,1.67
2024-05-09T06:50:37.295Z,1.58
2024-05-09T06:53:22.755Z,2.00
2024-05-09T06:56:11.162Z,1.77
2024-05-09T06:58:54.522Z,2.17
2024-05-09T07:01:39.833Z,1.17
2024-05-09T07:04:22.710Z,1.50
2024-05-09T07:07:09.392Z,1.73
2024-05-09T07:09:52.188Z,2.10
2024-05-09T07:12:40.037Z,1.67
2024-05-09T07:15:22.611Z,1.63
2024-05-09T07:18:13.835Z,1.75
2024-05-09T07:20:57.005Z,1.52
2024-05-09T07:23:45.160Z,1.38
2024-05-09T07:26:29.110Z,1.33
2024-05-09T07:29:17.136Z,1.98
2024-05-09T07:31:59.759Z,1.42
2024-05-09T07:34:45.086Z,0.98
2024-05-09T07:37:27.801Z,1.58
2024-05-09T07:40:21.258Z,1.50
2024-05-09T07:43:11.886Z,2.05
2024-05-09T07:46:28.314Z,1.40
2024-05-09T07:53:21.635Z,1.40
2024-05-09T07:54:58.968Z,1.73
2024-05-09T07:57:41.597Z,1.65
2024-05-09T08:00:30.888Z,1.60
2024-05-09T08:03:19.863Z,1.67
2024-05-09T08:06:02.509Z,1.67
2024-05-09T08:08:49.214Z,1.75
2024-05-09T08:11:33.197Z,1.25
2024-05-09T08:14:18.436Z,1.88
2024-05-09T08:17:03.642Z,1.90
2024-05-09T08:19:48.947Z,1.20
2024-05-09T08:22:36.324Z,2.30
2024-05-09T08:25:18.808Z,2.55
2024-05-09T08:28:04.022Z,1.95
2024-05-09T08:30:47.183Z,2.17
2024-05-09T08:33:34.541Z,2.00
2024-05-09T08:36:20.180Z,1.40
2024-05-09T08:39:05.411Z,2.40
2024-05-09T08:41:51.199Z,1.90
2024-05-09T08:44:37.289Z,1.85
2024-05-09T08:47:19.929Z,2.47
2024-05-09T08:50:11.031Z,1.70
2024-05-09T08:53:04.508Z,1.90
2024-05-09T08:55:48.987Z,2.20
2024-05-09T08:58:35.062Z,1.67
2024-05-09T09:01:19.283Z,1.90
2024-05-09T09:04:06.874Z,2.10
2024-05-09T09:06:53.228Z,2.42
2024-05-09T09:09:45.394Z,2.05
2024-05-09T09:12:28.226Z,1.85
2024-05-09T09:15:13.800Z,1.65
2024-05-09T09:17:58.040Z,1.50
2024-05-09T09:20:43.567Z,3.10
2024-05-09T09:23:28.462Z,1.95
2024-05-09T09:26:19.035Z,2.10
2024-05-09T09:29:02.044Z,2.10
2024-05-09T09:31:47.206Z,2.20
2024-05-09T09:34:31.179Z,2.78
2024-05-09T09:37:17.267Z,2.20
2024-05-09T09:40:00.024Z,2.47
2024-05-09T09:42:49.975Z,2.22
2024-05-09T09:45:33.998Z,2.60
2024-05-09T09:48:20.235Z,2.00
2024-05-09T09:51:03.456Z,1.92
2024-05-09T09:53:50.358Z,2.13
2024-05-09T09:56:33.771Z,2.05
2024-05-09T09:59:21.658Z,2.40
2024-05-09T10:02:07.390Z,2.72
2024-05-09T10:04:50.427Z,2.40
2024-05-09T10:07:36.469Z,2.00
2024-05-09T10:10:30.197Z,2.00
2024-05-09T10:13:20.121Z,2.17
2024-05-09T10:16:12.071Z,1.88
2024-05-09T10:18:57.491Z,2.10
2024-05-09T10:21:47.129Z,1.95
2024-05-09T10:24:47.229Z,2.20
2024-05-09T10:27:33.258Z,1.77
2024-05-09T10:30:33.820Z,2.00
2024-05-09T10:33:23.266Z,2.30
2024-05-09T10:36:14.315Z,2.65
2024-05-09T10:38:56.856Z,2.15
2024-05-09T10:41:42.264Z,1.92
2024-05-09T10:44:25.012Z,4.03
2024-05-09T10:47:10.328Z,1.90
2024-05-09T10:49:56.836Z,1.17
2024-05-09T10:52:42.901Z,1.52
2024-05-09T10:55:25.798Z,2.97
2024-05-09T10:58:20.146Z,3.00
2024-05-09T11:01:06.250Z,2.38
2024-05-09T11:03:52.925Z,1.73
2024-05-09T11:06:39.607Z,1.27
2024-05-09T11:09:25.165Z,1.80
2024-05-09T11:12:08.689Z,1.55
2024-05-09T11:14:57.336Z,1.90
2024-05-09T11:17:40.028Z,2.80
2024-05-09T11:20:29.571Z,1.30
2024-05-09T11:23:15.508Z,1.40
2024-05-09T11:26:01.591Z,1.52
2024-05-09T11:28:45.454Z,1.30
2024-05-09T11:31:30.769Z,1.40
2024-05-09T11:34:13.360Z,1.58
2024-05-09T11:36:58.801Z,1.45
2024-05-09T11:39:44.386Z,3.35
2024-05-09T11:42:29.813Z,1.73
2024-05-09T11:45:12.536Z,2.28
2024-05-09T11:47:58.000Z,1.50
2024-05-09T11:50:40.721Z,1.40
2024-05-09T11:53:26.148Z,1.30
2024-05-09T11:56:12.088Z,1.75
2024-05-09T11:58:57.560Z,1.38
2024-05-09T12:01:40.308Z,1.58
2024-05-09T12:04:25.815Z,1.40
2024-05-09T12:07:11.313Z,1.35
2024-05-09T12:09:57.512Z,1.67
2024-05-09T12:12:42.733Z,1.35
2024-05-09T12:15:28.329Z,1.55
2024-05-09T12:18:11.531Z,1.45
2024-05-09T12:20:56.689Z,1.65
2024-05-09T12:23:39.262Z,2.00
2024-05-09T12:26:24.578Z,1.67
2024-05-09T12:29:09.872Z,1.75
2024-05-09T12:31:54.996Z,1.20
2024-05-09T12:34:37.730Z,1.80
2024-05-09T12:37:23.135Z,1.00
2024-05-09T12:40:12.740Z,1.52
2024-05-09T12:43:03.697Z,1.30
2024-05-09T12:45:49.411Z,1.40
2024-05-09T12:48:35.089Z,1.02
2024-05-09T12:51:17.786Z,1.40
2024-05-09T12:54:03.115Z,2.28
2024-05-09T12:56:46.180Z,1.30
2024-05-09T12:59:31.417Z,1.35
2024-05-09T13:02:19.591Z,1.30
2024-05-09T13:05:02.435Z,1.83
2024-05-09T13:07:48.306Z,1.63
2024-05-09T13:10:32.880Z,1.33
2024-05-09T13:13:18.992Z,1.48
2024-05-09T13:16:01.868Z,1.30
2024-05-09T13:18:49.819Z,1.40
2024-05-09T13:21:32.523Z,2.13
2024-05-09T13:24:19.081Z,2.13
2024-05-09T13:27:01.638Z,1.88
2024-05-09T13:29:47.020Z,1.75
2024-05-09T13:32:32.524Z,1.85
2024-05-09T13:35:17.884Z,2.00
2024-05-09T13:38:05.006Z,2.50
2024-05-09T13:40:48.549Z,1.92
2024-05-09T13:43:34.105Z,2.15
2024-05-09T13:46:16.814Z,1.85
2024-05-09T13:49:02.315Z,2.35
2024-05-09T13:51:50.283Z,2.70
2024-05-09T13:54:32.957Z,2.60
2024-05-09T13:57:18.305Z,2.63
2024-05-09T14:00:00.868Z,3.03
2024-05-09T14:02:47.066Z,2.38
2024-05-09T14:05:29.775Z,2.67
2024-05-09T14:08:19.968Z,2.28
2024-05-09T14:13:47.842Z,2.30
2024-05-09T14:16:33.359Z,3.30
2024-05-09T14:19:16.368Z,2.95
2024-05-09T14:22:01.841Z,2.50
2024-05-09T14:24:47.143Z,3.92
2024-05-09T14:27:32.737Z,3.20
2024-05-09T14:30:22.880Z,2.33
2024-05-09T14:33:17.500Z,3.13
2024-05-09T14:36:00.393Z,2.63
2024-05-09T14:38:45.640Z,3.15
2024-05-09T14:41:31.585Z,3.30
2024-05-09T14:44:16.735Z,2.78
2024-05-09T14:46:59.940Z,3.03
2024-05-09T14:49:45.410Z,3.17
2024-05-09T14:52:28.025Z,2.70
2024-05-09T14:55:13.295Z,3.55
2024-05-09T14:57:58.730Z,2.83
2024-05-09T15:00:49.725Z,2.80
2024-05-09T15:03:33.960Z,3.58
2024-05-09T15:06:20.568Z,3.88
2024-05-09T15:09:04.014Z,2.38
2024-05-09T15:11:49.599Z,2.95
2024-05-09T15:14:34.846Z,3.03
2024-05-09T15:17:20.184Z,2.80
2024-05-09T15:20:04.491Z,2.80
2024-05-09T15:22:52.594Z,2.67
2024-05-09T15:25:36.184Z,2.83
2024-05-09T15:28:22.282Z,2.67
2024-05-09T15:31:07.795Z,2.83
2024-05-09T15:33:53.352Z,2.30
2024-05-09T15:36:36.210Z,2.63
2024-05-09T15:42:06.987Z,2.88
2024-05-09T15:44:53.379Z,2.30
2024-05-09T15:47:41.596Z,3.00
2024-05-09T15:50:35.124Z,2.33
2024-05-09T15:53:24.561Z,1.92
2024-05-09T15:56:07.607Z,3.55
2024-05-09T15:58:52.857Z,2.20
2024-05-09T16:01:35.802Z,2.30
2024-05-09T16:04:23.865Z,5.25
2024-05-09T16:07:06.544Z,2.67
2024-05-09T16:09:51.941Z,2.85
2024-05-09T16:12:34.553Z,2.80
2024-05-09T16:15:19.858Z,3.17
2024-05-09T16:18:02.791Z,3.53
2024-05-09T16:20:51.030Z,2.72
2024-05-09T16:23:39.331Z,3.67
2024-05-09T16:26:21.978Z,2.95
2024-05-09T16:29:07.406Z,2.88
2024-05-09T16:31:50.243Z,3.30
2024-05-09T16:34:35.441Z,3.53
2024-05-09T16:37:20.878Z,2.88
2024-05-09T16:40:09.923Z,2.85
2024-05-09T16:42:57.835Z,2.38
2024-05-09T16:45:44.810Z,2.60
2024-05-09T16:48:27.626Z,3.15
2024-05-09T16:51:13.180Z,2.30
2024-05-09T16:53:58.625Z,2.70
2024-05-09T16:56:44.073Z,2.65
2024-05-09T16:59:26.661Z,2.63
2024-05-09T17:02:12.392Z,2.30
2024-05-09T17:04:55.466Z,2.35
2024-05-09T17:07:40.911Z,2.50
2024-05-09T17:10:32.106Z,2.63
2024-05-09T17:13:19.970Z,3.05
2024-05-09T17:16:05.512Z,2.25
2024-05-09T17:18:51.688Z,2.10
2024-05-09T17:21:34.301Z,2.40
2024-05-09T17:24:19.764Z,2.53
2024-05-09T17:27:05.454Z,2.25
2024-05-09T17:29:50.892Z,3.30
2024-05-09T17:32:33.711Z,2.67
2024-05-09T17:35:19.822Z,3.45
2024-05-09T17:38:02.494Z,2.45
2024-05-09T17:40:47.916Z,3.10
2024-05-09T17:43:33.260Z,2.40
2024-05-09T17:46:18.561Z,3.15
2024-05-09T17:49:01.652Z,2.70
2024-05-09T17:51:54.739Z,3.40
2024-05-09T17:54:37.326Z,3.22
2024-05-09T17:57:22.755Z,3.22
2024-05-09T18:00:11.797Z,2.80
2024-05-09T18:02:57.291Z,3.20
2024-05-09T18:05:40.113Z,3.47
2024-05-09T18:08:25.474Z,3.80
2024-05-09T18:11:08.356Z,4.03
2024-05-09T18:13:54.304Z,3.28
2024-05-09T18:16:39.585Z,3.13
2024-05-09T18:19:25.227Z,3.40
2024-05-09T18:22:07.990Z,4.10
2024-05-09T18:24:53.527Z,4.18
2024-05-09T18:27:39.262Z,3.42
2024-05-09T18:30:28.065Z,4.65
2024-05-09T18:33:21.919Z,4.50
2024-05-09T18:36:04.700Z,5.50
2024-05-09T18:38:50.351Z,4.70
2024-05-09T18:41:32.926Z,7.35
2024-05-09T18:44:18.641Z,6.93
2024-05-09T18:47:01.229Z,9.68
2024-05-09T18:49:51.171Z,7.90
2024-05-09T18:52:33.917Z,6.22
2024-05-09T18:55:19.755Z,6.07
2024-05-09T18:58:02.597Z,6.40
2024-05-09T19:00:50.485Z,6.03
2024-05-09T19:03:35.526Z,7.07
2024-05-09T19:06:24.839Z,5.95
2024-05-09T19:09:07.711Z,5.55
2024-05-09T19:11:52.937Z,5.90
2024-05-09T19:14:35.552Z,5.40
2024-05-09T19:17:21.331Z,5.10
2024-05-09T19:20:05.953Z,4.88
2024-05-09T19:22:54.058Z,5.60
2024-05-09T19:25:36.976Z,4.68
2024-05-09T19:28:22.239Z,5.13
2024-05-09T19:31:05.117Z,4.85
2024-05-09T19:33:50.662Z,4.70
2024-05-09T19:36:33.646Z,4.65
2024-05-09T19:39:21.555Z,4.25
2024-05-09T19:42:04.545Z,4.47
2024-05-09T19:44:49.844Z,4.13
2024-05-09T19:47:32.773Z,5.05
2024-05-09T19:50:26.657Z,4.93
2024-05-09T19:53:15.609Z,4.72
2024-05-09T19:56:03.728Z,7.97
2024-05-09T19:58:46.412Z,5.13
2024-05-09T20:01:31.866Z,5.93
2024-05-09T20:04:14.492Z,6.25
2024-05-09T20:07:00.085Z,6.25
2024-05-09T20:09:44.410Z,5.60
2024-05-09T20:12:32.611Z,5.78
2024-05-09T20:15:15.383Z,5.53
2024-05-09T20:18:01.045Z,5.57
2024-05-09T20:20:45.333Z,5.40
2024-05-09T20:23:31.123Z,5.72
2024-05-09T20:26:14.294Z,5.32
2024-05-09T20:29:02.141Z,5.65
2024-05-09T20:31:44.922Z,5.95
2024-05-09T20:34:30.107Z,5.78
2024-05-09T20:37:12.893Z,5.60
2024-05-09T20:39:58.507Z,5.75
2024-05-09T20:42:41.343Z,6.45
2024-05-09T20:45:29.390Z,4.93
2024-05-09T20:48:12.297Z,5.55
2024-05-09T20:50:57.615Z,5.90
2024-05-09T20:53:40.360Z,5.30
2024-05-09T20:56:25.931Z,5.78
2024-05-09T20:59:08.679Z,6.78
2024-05-09T21:01:56.610Z,6.38
2024-05-09T21:04:39.500Z,6.30
2024-05-09T21:07:24.866Z,6.03
2024-05-09T21:10:15.438Z,6.50
2024-05-09T21:13:05.352Z,6.43
2024-05-09T21:15:48.992Z,5.65
2024-05-09T21:18:37.156Z,5.25
2024-05-09T21:21:22.603Z,5.88
2024-05-09T21:24:05.451Z,6.60
2024-05-09T21:26:51.284Z,6.70
2024-05-09T21:29:33.815Z,7.00
2024-05-09T21:32:19.224Z,6.95
2024-05-09T21:35:05.406Z,7.18
2024-05-09T21:37:50.648Z,6.28
2024-05-09T21:40:35.672Z,7.10
2024-05-09T21:43:22.453Z,7.72
2024-05-09T21:46:08.105Z,6.50
2024-05-09T21:48:50.770Z,6.32
2024-05-09T21:51:38.731Z,8.60
2024-05-09T21:54:21.341Z,7.38
2024-05-09T21:57:09.091Z,6.50
2024-05-09T21:59:51.640Z,6.07
2024-05-09T22:02:37.184Z,6.00
2024-05-09T22:05:22.703Z,5.20
2024-05-09T22:08:08.943Z,7.00
2024-05-09T22:10:54.524Z,5.75
2024-05-09T22:13:37.447Z,5.18
2024-05-09T22:16:23.392Z,4.20
2024-05-09T22:19:06.214Z,4.50
2024-05-09T22:21:52.001Z,4.07
2024-05-09T22:24:37.625Z,4.32
2024-05-09T22:27:23.183Z,4.10
2024-05-09T22:30:09.217Z,4.10
2024-05-09T22:32:57.524Z,4.00
2024-05-09T22:35:40.954Z,3.22
2024-05-09T22:38:26.908Z,3.40
2024-05-09T22:41:12.236Z,3.47
2024-05-09T22:43:57.593Z,3.63
2024-05-09T22:46:40.252Z,2.65
2024-05-09T22:49:25.874Z,3.42
2024-05-09T22:52:08.744Z,3.17
2024-05-09T22:54:54.324Z,3.53
2024-05-09T22:57:39.919Z,2.95
2024-05-09T23:00:31.308Z,3.50
2024-05-09T23:03:16.631Z,3.67
2024-05-09T23:06:02.308Z,7.82
2024-05-09T23:08:45.095Z,3.20
2024-05-09T23:11:30.483Z,2.97
2024-05-09T23:14:15.804Z,2.70
2024-05-09T23:17:01.149Z,2.47
2024-05-09T23:19:44.199Z,3.10
2024-05-09T23:22:30.168Z,2.47
2024-05-09T23:25:12.892Z,3.10
2024-05-09T23:27:58.490Z,2.80
2024-05-09T23:30:44.065Z,2.50
2024-05-09T23:33:29.734Z,3.08
2024-05-09T23:36:12.595Z,2.72
2024-05-09T23:38:57.805Z,2.60
2024-05-09T23:41:40.606Z,2.38
2024-05-09T23:44:25.761Z,2.65
2024-05-09T23:47:11.350Z,2.40
2024-05-09T23:49:56.530Z,2.22
2024-05-09T23:52:39.302Z,2.47
2024-05-09T23:55:24.571Z,3.22
2024-05-09T23:58:07.774Z,2.67
